sensor_id;sensor_type;location;lat;lon;timestamp;pressure;altitude;pressure_sealevel;temperature;humidity
17950;BME280;9100;48.700;9.316;2023-06-26T00:00:35;97729.4;;;22.8;64.946
17950;BME280;9100;48.700;9.316;2023-06-26T00:01:09;97727;;;22.78;65.031
17950;BME280;9100;48.700;9.316;2023-06-26T00:01:35;97725.5;;;22.77;65.096
17950;BME280;9100;48.700;9.316;2023-06-26T00:02:35;97729.1;;;22.76;65.27
17950;BME280;9100;48.700;9.316;2023-06-26T00:03:35;97723.90000000001;;;22.76;65.378
17950;BME280;9100;48.700;9.316;2023-06-26T00:04:35;97720.8;;;22.74;65.562
17950;BME280;9100;48.700;9.316;2023-06-26T00:05:35;97728.9;;;22.73;65.799
17950;BME280;9100;48.700;9.316;2023-06-26T00:06:09;97731.7;;;22.71;65.885
17950;BME280;9100;48.700;9.316;2023-06-26T00:06:35;97730.2;;;22.7;65.948
17950;BME280;9100;48.700;9.316;2023-06-26T00:07:35;97726;;;22.69;66.101
17950;BME280;9100;48.700;9.316;2023-06-26T00:08:35;97727;;;22.68;66.218
17950;BME280;9100;48.700;9.316;2023-06-26T00:09:35;97721.8;;;22.68;66.272
17950;BME280;9100;48.700;9.316;2023-06-26T00:10:35;97724.40000000001;;;22.68;66.437
17950;BME280;9100;48.700;9.316;2023-06-26T00:11:09;97735.6;;;22.68;66.449
17950;BME280;9100;48.700;9.316;2023-06-26T00:11:35;97733.8;;;22.69;66.593
17950;BME280;9100;48.700;9.316;2023-06-26T00:12:35;97732.2;;;22.68;66.634
17950;BME280;9100;48.700;9.316;2023-06-26T00:13:35;97728;;;22.67;66.634
17950;BME280;9100;48.700;9.316;2023-06-26T00:14:35;97730.4;;;22.68;66.788
17950;BME280;9100;48.700;9.316;2023-06-26T00:15:35;97731.7;;;22.66;66.915
17950;BME280;9100;48.700;9.316;2023-06-26T00:16:09;97727.5;;;22.65;67.024
17950;BME280;9100;48.700;9.316;2023-06-26T00:16:35;97732.7;;;22.65;67.057
17950;BME280;9100;48.700;9.316;2023-06-26T00:17:37;97727.5;;;22.65;67.265
17950;BME280;9100;48.700;9.316;2023-06-26T00:18:35;97732.7;;;22.65;67.45
17950;BME280;9100;48.700;9.316;2023-06-26T00:19:35;97732.7;;;22.65;67.494
17950;BME280;9100;48.700;9.316;2023-06-26T00:20:35;97729.1;;;22.66;67.582
17950;BME280;9100;48.700;9.316;2023-06-26T00:21:09;97736.3;;;22.64;67.742
17950;BME280;9100;48.700;9.316;2023-06-26T00:21:35;97734.5;;;22.64;67.831
17950;BME280;9100;48.700;9.316;2023-06-26T00:22:35;97731.6;;;22.61;68.022
17950;BME280;9100;48.700;9.316;2023-06-26T00:23:35;97738.2;;;22.58;68.336
17950;BME280;9100;48.700;9.316;2023-06-26T00:24:35;97737.90000000001;;;22.55;68.516
17950;BME280;9100;48.700;9.316;2023-06-26T00:25:35;97737.3;;;22.53;68.852
17950;BME280;9100;48.700;9.316;2023-06-26T00:26:09;97736.3;;;22.49;68.988
17950;BME280;9100;48.700;9.316;2023-06-26T00:26:35;97731.8;;;22.49;69.108
17950;BME280;9100;48.700;9.316;2023-06-26T00:27:35;97737.3;;;22.48;69.336
17950;BME280;9100;48.700;9.316;2023-06-26T00:28:35;97732.3;;;22.46;69.683
17950;BME280;9100;48.700;9.316;2023-06-26T00:29:35;97742.2;;;22.44;69.898
17950;BME280;9100;48.700;9.316;2023-06-26T00:30:35;97738.3;;;22.42;70.223
17950;BME280;9100;48.700;9.316;2023-06-26T00:31:09;97736.7;;;22.41;70.427
17950;BME280;9100;48.700;9.316;2023-06-26T00:31:35;97729.5;;;22.43;70.65
17950;BME280;9100;48.700;9.316;2023-06-26T00:32:35;97738.3;;;22.42;70.955
17950;BME280;9100;48.700;9.316;2023-06-26T00:33:35;97738.3;;;22.42;70.943
17950;BME280;9100;48.700;9.316;2023-06-26T00:34:35;97733.90000000001;;;22.42;71.326
17950;BME280;9100;48.700;9.316;2023-06-26T00:35:35;97738.3;;;22.42;71.632
17950;BME280;9100;48.700;9.316;2023-06-26T00:36:09;97730;;;22.4;72.337
17950;BME280;9100;48.700;9.316;2023-06-26T00:36:35;97731.5;;;22.41;72.459
17950;BME280;9100;48.700;9.316;2023-06-26T00:37:35;97735.2;;;22.4;73.124
17950;BME280;9100;48.700;9.316;2023-06-26T00:38:35;97736.2;;;22.39;73.505
17950;BME280;9100;48.700;9.316;2023-06-26T00:39:35;97732;;;22.38;74.301
17950;BME280;9100;48.700;9.316;2023-06-26T00:40:35;97735.7;;;22.37;75.282
17950;BME280;9100;48.700;9.316;2023-06-26T00:41:09;97731.8;;;22.34;75.704
17950;BME280;9100;48.700;9.316;2023-06-26T00:41:35;97737.8;;;22.35;75.956
17950;BME280;9100;48.700;9.316;2023-06-26T00:42:35;97731.8;;;22.34;76.502
17950;BME280;9100;48.700;9.316;2023-06-26T00:43:35;97735.40000000001;;;22.33;77.243
17950;BME280;9100;48.700;9.316;2023-06-26T00:44:35;97728.9;;;22.31;78.035
17950;BME280;9100;48.700;9.316;2023-06-26T00:45:35;97735.1;;;22.3;78.296
17950;BME280;9100;48.700;9.316;2023-06-26T00:46:10;97732;;;22.28;78.543
17950;BME280;9100;48.700;9.316;2023-06-26T00:46:35;97726.8;;;22.28;78.882
17950;BME280;9100;48.700;9.316;2023-06-26T00:47:35;97732.8;;;22.28;79.103
17950;BME280;9100;48.700;9.316;2023-06-26T00:48:35;97732;;;22.28;79.396
17950;BME280;9100;48.700;9.316;2023-06-26T00:49:35;97728.9;;;22.26;79.697
17950;BME280;9100;48.700;9.316;2023-06-26T00:50:35;97729.9;;;22.24;79.914
17950;BME280;9100;48.700;9.316;2023-06-26T00:51:09;97730.9;;;22.23;80.098
17950;BME280;9100;48.700;9.316;2023-06-26T00:51:35;97724.1;;;22.22;80.358
17950;BME280;9100;48.700;9.316;2023-06-26T00:52:35;97728.8;;;22.2;80.835
17950;BME280;9100;48.700;9.316;2023-06-26T00:53:35;97731.9;;;22.17;81.136
17950;BME280;9100;48.700;9.316;2023-06-26T00:54:35;97723.6;;;22.15;81.296
17950;BME280;9100;48.700;9.316;2023-06-26T00:55:35;97729;;;22.14;81.751
17950;BME280;9100;48.700;9.316;2023-06-26T00:56:09;97732.9;;;22.11;81.671
17950;BME280;9100;48.700;9.316;2023-06-26T00:56:35;97732.1;;;22.11;81.746
17950;BME280;9100;48.700;9.316;2023-06-26T00:57:35;97721.40000000001;;;22.07;81.684
17950;BME280;9100;48.700;9.316;2023-06-26T00:58:35;97727.09999999999;;;22.04;81.668
17950;BME280;9100;48.700;9.316;2023-06-26T00:59:35;97724.2;;;22.01;81.706
17950;BME280;9100;48.700;9.316;2023-06-26T01:00:35;97724;;;21.97;81.773
17950;BME280;9100;48.700;9.316;2023-06-26T01:01:09;97728.59999999999;;;21.95;81.89
17950;BME280;9100;48.700;9.316;2023-06-26T01:01:35;97724.2;;;21.96;82.045
17950;BME280;9100;48.700;9.316;2023-06-26T01:02:35;97720.3;;;21.93;82.138
17950;BME280;9100;48.700;9.316;2023-06-26T01:03:35;97724.5;;;21.94;82.381
17950;BME280;9100;48.700;9.316;2023-06-26T01:04:35;97719.8;;;21.91;82.461
17950;BME280;9100;48.700;9.316;2023-06-26T01:05:35;97727;;;21.89;82.796
17950;BME280;9100;48.700;9.316;2023-06-26T01:06:09;97722.79999999999;;;21.88;82.665
17950;BME280;9100;48.700;9.316;2023-06-26T01:06:35;97720.2;;;21.88;82.643
17950;BME280;9100;48.700;9.316;2023-06-26T01:07:35;97726;;;21.9;82.821
17950;BME280;9100;48.700;9.316;2023-06-26T01:08:35;97719.2;;;21.89;82.785
17950;BME280;9100;48.700;9.316;2023-06-26T01:09:35;97721.8;;;21.89;83.014
17950;BME280;9100;48.700;9.316;2023-06-26T01:10:35;97723.6;;;21.89;82.73
17950;BME280;9100;48.700;9.316;2023-06-26T01:11:10;97719.2;;;21.89;82.522
17950;BME280;9100;48.700;9.316;2023-06-26T01:11:35;97724.40000000001;;;21.89;82.577
17950;BME280;9100;48.700;9.316;2023-06-26T01:12:35;97721.6;;;21.91;82.811
17950;BME280;9100;48.700;9.316;2023-06-26T01:13:35;97721.6;;;21.91;82.887
17950;BME280;9100;48.700;9.316;2023-06-26T01:14:36;97722.40000000001;;;21.91;83.018
17950;BME280;9100;48.700;9.316;2023-06-26T01:15:35;97722.40000000001;;;21.91;83.334
17950;BME280;9100;48.700;9.316;2023-06-26T01:16:09;97719.8;;;21.91;83.399
17950;BME280;9100;48.700;9.316;2023-06-26T01:16:35;97717.2;;;21.91;83.618
17950;BME280;9100;48.700;9.316;2023-06-26T01:17:36;97717.9;;;21.92;82.659
17950;BME280;9100;48.700;9.316;2023-06-26T01:18:35;97720.8;;;21.9;82.123
17950;BME280;9100;48.700;9.316;2023-06-26T01:19:35;97717.6;;;21.88;82.021
17950;BME280;9100;48.700;9.316;2023-06-26T01:20:36;97715.5;;;21.85;82.068
17950;BME280;9100;48.700;9.316;2023-06-26T01:21:09;97719.4;;;21.83;82.183
17950;BME280;9100;48.700;9.316;2023-06-26T01:21:35;97717.6;;;21.83;82.195
17950;BME280;9100;48.700;9.316;2023-06-26T01:22:37;97721.7;;;21.79;82.56
17950;BME280;9100;48.700;9.316;2023-06-26T01:23:37;97711.8;;;21.76;82.967
17950;BME280;9100;48.700;9.316;2023-06-26T01:24:35;97721.2;;;21.77;83.145
17950;BME280;9100;48.700;9.316;2023-06-26T01:25:37;97719.8;;;21.74;83.456
17950;BME280;9100;48.700;9.316;2023-06-26T01:26:15;97717.5;;;21.73;83.399
17950;BME280;9100;48.700;9.316;2023-06-26T01:26:35;97726.09999999999;;;21.73;83.52
17950;BME280;9100;48.700;9.316;2023-06-26T01:27:35;97710.5;;;21.73;83.541
17950;BME280;9100;48.700;9.316;2023-06-26T01:28:35;97720.1;;;21.73;83.836
17950;BME280;9100;48.700;9.316;2023-06-26T01:29:35;97712.5;;;21.71;84.007
17950;BME280;9100;48.700;9.316;2023-06-26T01:30:35;97715.9;;;21.72;83.996
17950;BME280;9100;48.700;9.316;2023-06-26T01:31:10;97717.7;;;21.71;84.028
17950;BME280;9100;48.700;9.316;2023-06-26T01:31:35;97715.9;;;21.72;84.148
17950;BME280;9100;48.700;9.316;2023-06-26T01:32:35;97717;;;21.71;84.476
17950;BME280;9100;48.700;9.316;2023-06-26T01:33:35;97716.2;;;21.7;84.387
17950;BME280;9100;48.700;9.316;2023-06-26T01:34:35;97714.8;;;21.68;84.457
17950;BME280;9100;48.700;9.316;2023-06-26T01:35:35;97719.5;;;21.66;84.835
17950;BME280;9100;48.700;9.316;2023-06-26T01:36:09;97716.4;;;21.64;84.875
17950;BME280;9100;48.700;9.316;2023-06-26T01:36:35;97716.4;;;21.64;84.963
17950;BME280;9100;48.700;9.316;2023-06-26T01:37:35;97711.2;;;21.64;85.268
17950;BME280;9100;48.700;9.316;2023-06-26T01:38:35;97709.6;;;21.63;85.561
17950;BME280;9100;48.700;9.316;2023-06-26T01:39:35;97708.3;;;21.6;85.523
17950;BME280;9100;48.700;9.316;2023-06-26T01:40:35;97704.1;;;21.59;85.705
17950;BME280;9100;48.700;9.316;2023-06-26T01:41:09;97706.2;;;21.57;85.844
17950;BME280;9100;48.700;9.316;2023-06-26T01:41:35;97706.4;;;21.56;85.939
17950;BME280;9100;48.700;9.316;2023-06-26T01:42:35;97709.3;;;21.54;86.11
17950;BME280;9100;48.700;9.316;2023-06-26T01:43:36;97701.2;;;21.51;86.269
17950;BME280;9100;48.700;9.316;2023-06-26T01:44:36;97704.8;;;21.5;86.583
17950;BME280;9100;48.700;9.316;2023-06-26T01:45:35;97700.09999999999;;;21.47;86.947
17950;BME280;9100;48.700;9.316;2023-06-26T01:46:10;97703.7;;;21.46;87.055
17950;BME280;9100;48.700;9.316;2023-06-26T01:46:36;97703.7;;;21.46;87.152
17950;BME280;9100;48.700;9.316;2023-06-26T01:47:35;97701.4;;;21.44;87.52
17950;BME280;9100;48.700;9.316;2023-06-26T01:48:44;97651.09999999999;;;21.12;87.65
17950;BME280;9100;48.700;9.316;2023-06-26T01:49:39;97699;;;21.43;88.083
17950;BME280;9100;48.700;9.316;2023-06-26T01:50:35;97705.5;;;21.4;88.34
17950;BME280;9100;48.700;9.316;2023-06-26T01:51:09;97703.09999999999;;;21.39;88.445
17950;BME280;9100;48.700;9.316;2023-06-26T01:51:36;97703.09999999999;;;21.39;88.587
17950;BME280;9100;48.700;9.316;2023-06-26T01:52:36;97694.8;;;21.37;89.062
17950;BME280;9100;48.700;9.316;2023-06-26T01:53:36;97702.09999999999;;;21.35;89.386
17950;BME280;9100;48.700;9.316;2023-06-26T01:54:37;97698.90000000001;;;21.33;89.764
17950;BME280;9100;48.700;9.316;2023-06-26T01:55:36;97703.3;;;21.32;90.036
17950;BME280;9100;48.700;9.316;2023-06-26T01:56:11;97700;;;21.32;90.153
17950;BME280;9100;48.700;9.316;2023-06-26T01:56:35;97703.59999999999;;;21.31;90.305
17950;BME280;9100;48.700;9.316;2023-06-26T01:57:35;97697.6;;;21.3;90.555
17950;BME280;9100;48.700;9.316;2023-06-26T01:58:35;97698.6;;;21.29;90.922
17950;BME280;9100;48.700;9.316;2023-06-26T01:59:35;97698.90000000001;;;21.27;91.279
17950;BME280;9100;48.700;9.316;2023-06-26T02:00:35;97699.40000000001;;;21.24;91.557
17950;BME280;9100;48.700;9.316;2023-06-26T02:01:09;97700.40000000001;;;21.23;91.652
17950;BME280;9100;48.700;9.316;2023-06-26T02:01:35;97700.40000000001;;;21.23;91.794
17950;BME280;9100;48.700;9.316;2023-06-26T02:02:35;97696;;;21.24;92.197
17950;BME280;9100;48.700;9.316;2023-06-26T02:03:35;97697;;;21.23;92.282
17950;BME280;9100;48.700;9.316;2023-06-26T02:04:35;97697.29999999999;;;21.21;92.749
17950;BME280;9100;48.700;9.316;2023-06-26T02:05:35;97709.7;;;21.19;93.224
17950;BME280;9100;48.700;9.316;2023-06-26T02:06:09;97692.8;;;21.17;93.653
17950;BME280;9100;48.700;9.316;2023-06-26T02:06:35;97690.20000000001;;;21.17;93.729
17950;BME280;9100;48.700;9.316;2023-06-26T02:07:35;97692.2;;;21.15;93.977
17950;BME280;9100;48.700;9.316;2023-06-26T02:08:35;97694.3;;;21.13;94.288
17950;BME280;9100;48.700;9.316;2023-06-26T02:09:35;97699.7;;;21.11;94.807
17950;BME280;9100;48.700;9.316;2023-06-26T02:10:35;97696.6;;;21.09;95.151
17950;BME280;9100;48.700;9.316;2023-06-26T02:11:09;97696;;;21.07;95.201
17950;BME280;9100;48.700;9.316;2023-06-26T02:11:35;97698.6;;;21.07;95.397
17950;BME280;9100;48.700;9.316;2023-06-26T02:12:36;97693.4;;;21.07;95.659
17950;BME280;9100;48.700;9.316;2023-06-26T02:13:35;97701.2;;;21.07;95.92
17950;BME280;9100;48.700;9.316;2023-06-26T02:14:35;97704.1;;;21.06;96.319
17950;BME280;9100;48.700;9.316;2023-06-26T02:15:35;97696.8;;;21.03;96.729
17950;BME280;9100;48.700;9.316;2023-06-26T02:16:09;97695.2;;;21.02;97.063
17950;BME280;9100;48.700;9.316;2023-06-26T02:16:35;97694.4;;;21.01;97.19
17950;BME280;9100;48.700;9.316;2023-06-26T02:17:35;97693.1;;;20.99;97.698
17950;BME280;9100;48.700;9.316;2023-06-26T02:18:35;97694.3;;;20.96;98.173
17950;BME280;9100;48.700;9.316;2023-06-26T02:19:35;97690.4;;;20.94;98.7
17950;BME280;9100;48.700;9.316;2023-06-26T02:20:35;97697.7;;;20.92;99.164
17950;BME280;9100;48.700;9.316;2023-06-26T02:21:09;97699.7;;;20.9;99.453
17950;BME280;9100;48.700;9.316;2023-06-26T02:21:35;97696.40000000001;;;20.89;99.789
17950;BME280;9100;48.700;9.316;2023-06-26T02:22:35;97698.7;;;20.86;100
17950;BME280;9100;48.700;9.316;2023-06-26T02:23:35;97701.70000000001;;;20.83;100
17950;BME280;9100;48.700;9.316;2023-06-26T02:24:35;97710;;;20.79;100
17950;BME280;9100;48.700;9.316;2023-06-26T02:25:35;97701.70000000001;;;20.77;100
17950;BME280;9100;48.700;9.316;2023-06-26T02:26:09;97702.70000000001;;;20.76;100
17950;BME280;9100;48.700;9.316;2023-06-26T02:26:35;97700.9;;;20.77;100
17950;BME280;9100;48.700;9.316;2023-06-26T02:27:35;97705.5;;;20.75;100
17950;BME280;9100;48.700;9.316;2023-06-26T02:28:35;97707.1;;;20.71;100
17950;BME280;9100;48.700;9.316;2023-06-26T02:29:35;97706;;;20.67;100
17950;BME280;9100;48.700;9.316;2023-06-26T02:30:35;97698.1;;;20.62;100
17950;BME280;9100;48.700;9.316;2023-06-26T02:31:09;97706.1;;;20.6;100
17950;BME280;9100;48.700;9.316;2023-06-26T02:31:35;97704.3;;;20.61;100
17950;BME280;9100;48.700;9.316;2023-06-26T02:32:35;97700.7;;;20.57;100
17950;BME280;9100;48.700;9.316;2023-06-26T02:33:35;97708.7;;;20.55;100
17950;BME280;9100;48.700;9.316;2023-06-26T02:34:35;97699.59999999999;;;20.53;100
17950;BME280;9100;48.700;9.316;2023-06-26T02:35:35;97701.8;;;20.49;100
17950;BME280;9100;48.700;9.316;2023-06-26T02:36:09;97694.5;;;20.46;100
17950;BME280;9100;48.700;9.316;2023-06-26T02:36:35;97703.4;;;20.45;100
17950;BME280;9100;48.700;9.316;2023-06-26T02:37:35;97700.2;;;20.43;100
17950;BME280;9100;48.700;9.316;2023-06-26T02:38:35;97695.3;;;20.42;100
17950;BME280;9100;48.700;9.316;2023-06-26T02:39:35;97703.3;;;20.4;100
17950;BME280;9100;48.700;9.316;2023-06-26T02:40:35;97700.09999999999;;;20.38;100
17950;BME280;9100;48.700;9.316;2023-06-26T02:41:09;97704.6;;;20.38;100
17950;BME280;9100;48.700;9.316;2023-06-26T02:41:35;97703.5;;;20.39;100
17950;BME280;9100;48.700;9.316;2023-06-26T02:42:36;97699.40000000001;;;20.38;100
17950;BME280;9100;48.700;9.316;2023-06-26T02:43:35;97704.8;;;20.36;100
17950;BME280;9100;48.700;9.316;2023-06-26T02:44:35;97706;;;20.33;100
17950;BME280;9100;48.700;9.316;2023-06-26T02:45:35;97702.09999999999;;;20.31;100
17950;BME280;9100;48.700;9.316;2023-06-26T02:46:09;97703.4;;;20.28;100
17950;BME280;9100;48.700;9.316;2023-06-26T02:46:35;97701.8;;;20.27;100
17950;BME280;9100;48.700;9.316;2023-06-26T02:47:35;97705.9;;;20.23;100
17950;BME280;9100;48.700;9.316;2023-06-26T02:48:35;97695.4;;;20.18;100
17950;BME280;9100;48.700;9.316;2023-06-26T02:49:35;97697.7;;;20.15;100
17950;BME280;9100;48.700;9.316;2023-06-26T02:50:35;97695.4;;;20.13;100
17950;BME280;9100;48.700;9.316;2023-06-26T02:51:09;97697.40000000001;;;20.11;100
17950;BME280;9100;48.700;9.316;2023-06-26T02:51:35;97696.6;;;20.11;100
17950;BME280;9100;48.700;9.316;2023-06-26T02:52:35;97691.7;;;20.09;100
17950;BME280;9100;48.700;9.316;2023-06-26T02:53:35;97696.1;;;20.09;100
17950;BME280;9100;48.700;9.316;2023-06-26T02:54:35;97700.5;;;20.08;100
17950;BME280;9100;48.700;9.316;2023-06-26T02:55:35;97698.90000000001;;;20.07;100
17950;BME280;9100;48.700;9.316;2023-06-26T02:56:09;97696.3;;;20.07;100
17950;BME280;9100;48.700;9.316;2023-06-26T02:56:35;97700.5;;;20.08;100
17950;BME280;9100;48.700;9.316;2023-06-26T02:57:36;97703.09999999999;;;20.08;100
17950;BME280;9100;48.700;9.316;2023-06-26T02:58:35;97697.90000000001;;;20.08;100
17950;BME280;9100;48.700;9.316;2023-06-26T02:59:35;97701.5;;;20.07;100
17950;BME280;9100;48.700;9.316;2023-06-26T03:00:35;97698.40000000001;;;20.05;100
17950;BME280;9100;48.700;9.316;2023-06-26T03:01:09;97703.8;;;20.04;100
17950;BME280;9100;48.700;9.316;2023-06-26T03:01:35;97702.20000000001;;;20.03;100
17950;BME280;9100;48.700;9.316;2023-06-26T03:02:35;97701.70000000001;;;20.01;100
17950;BME280;9100;48.700;9.316;2023-06-26T03:03:35;97700.9;;;20;100
17950;BME280;9100;48.700;9.316;2023-06-26T03:04:35;97707.3;;;19.98;100
17950;BME280;9100;48.700;9.316;2023-06-26T03:05:35;97702.4;;;19.96;100
17950;BME280;9100;48.700;9.316;2023-06-26T03:06:09;97704.2;;;19.96;100
17950;BME280;9100;48.700;9.316;2023-06-26T03:06:35;97707.8;;;19.95;100
17950;BME280;9100;48.700;9.316;2023-06-26T03:07:35;97705.7;;;19.92;100
17950;BME280;9100;48.700;9.316;2023-06-26T03:08:36;97703.3;;;19.9;100
17950;BME280;9100;48.700;9.316;2023-06-26T03:09:35;97705.4;;;19.88;100
17950;BME280;9100;48.700;9.316;2023-06-26T03:10:35;97706.4;;;19.87;100
17950;BME280;9100;48.700;9.316;2023-06-26T03:11:09;97706.6;;;19.85;100
17950;BME280;9100;48.700;9.316;2023-06-26T03:11:35;97704.8;;;19.86;100
17950;BME280;9100;48.700;9.316;2023-06-26T03:12:35;97704.8;;;19.86;100
17950;BME280;9100;48.700;9.316;2023-06-26T03:13:36;97700.09999999999;;;19.83;100
17950;BME280;9100;48.700;9.316;2023-06-26T03:14:36;97703.7;;;19.82;100
17950;BME280;9100;48.700;9.316;2023-06-26T03:15:35;97708.1;;;19.81;100
17950;BME280;9100;48.700;9.316;2023-06-26T03:16:09;97701.59999999999;;;19.79;100
17950;BME280;9100;48.700;9.316;2023-06-26T03:16:35;97704.2;;;19.79;100
17950;BME280;9100;48.700;9.316;2023-06-26T03:17:35;97702.59999999999;;;19.78;100
17950;BME280;9100;48.700;9.316;2023-06-26T03:18:35;97697.40000000001;;;19.78;100
17950;BME280;9100;48.700;9.316;2023-06-26T03:19:35;97704.7;;;19.76;100
17950;BME280;9100;48.700;9.316;2023-06-26T03:20:35;97698.1;;;19.73;100
17950;BME280;9100;48.700;9.316;2023-06-26T03:21:09;97697.6;;;19.71;100
17950;BME280;9100;48.700;9.316;2023-06-26T03:21:35;97701;;;19.72;100
17950;BME280;9100;48.700;9.316;2023-06-26T03:22:35;97703.2;;;19.68;100
17950;BME280;9100;48.700;9.316;2023-06-26T03:23:35;97701.9;;;19.66;100
17950;BME280;9100;48.700;9.316;2023-06-26T03:24:35;97703.9;;;19.64;100
17950;BME280;9100;48.700;9.316;2023-06-26T03:25:35;97698.2;;;19.62;100
17950;BME280;9100;48.700;9.316;2023-06-26T03:26:09;97693.5;;;19.59;100
17950;BME280;9100;48.700;9.316;2023-06-26T03:26:35;97695.8;;;19.6;100
17950;BME280;9100;48.700;9.316;2023-06-26T03:27:35;97702.3;;;19.58;100
17950;BME280;9100;48.700;9.316;2023-06-26T03:28:35;97703.3;;;19.57;100
17950;BME280;9100;48.700;9.316;2023-06-26T03:29:35;97704.3;;;19.56;100
17950;BME280;9100;48.700;9.316;2023-06-26T03:30:35;97707.9;;;19.55;100
17950;BME280;9100;48.700;9.316;2023-06-26T03:31:09;97705.6;;;19.53;100
17950;BME280;9100;48.700;9.316;2023-06-26T03:31:36;97702.70000000001;;;19.55;100
17950;BME280;9100;48.700;9.316;2023-06-26T03:32:35;97706.4;;;19.54;100
17950;BME280;9100;48.700;9.316;2023-06-26T03:33:36;97708.2;;;19.53;100
17950;BME280;9100;48.700;9.316;2023-06-26T03:34:35;97707.6;;;19.51;100
17950;BME280;9100;48.700;9.316;2023-06-26T03:35:35;97656.9;;;19.15;100
17950;BME280;9100;48.700;9.316;2023-06-26T03:36:09;97698.5;;;19.49;100
17950;BME280;9100;48.700;9.316;2023-06-26T03:36:35;97705.3;;;19.5;100
17950;BME280;9100;48.700;9.316;2023-06-26T03:37:35;97706.8;;;19.51;100
17950;BME280;9100;48.700;9.316;2023-06-26T03:38:35;97708.4;;;19.52;100
17950;BME280;9100;48.700;9.316;2023-06-26T03:39:35;97709.2;;;19.52;100
17950;BME280;9100;48.700;9.316;2023-06-26T03:40:35;97714.59999999999;;;19.51;100
17950;BME280;9100;48.700;9.316;2023-06-26T03:41:09;97706.1;;;19.5;100
17950;BME280;9100;48.700;9.316;2023-06-26T03:41:35;97713.59999999999;;;19.52;100
17950;BME280;9100;48.700;9.316;2023-06-26T03:42:35;97709.2;;;19.52;100
17950;BME280;9100;48.700;9.316;2023-06-26T03:43:35;97715.20000000001;;;19.53;100
17950;BME280;9100;48.700;9.316;2023-06-26T03:44:35;97710;;;19.53;100
17950;BME280;9100;48.700;9.316;2023-06-26T03:45:35;97707.9;;;19.55;100
17950;BME280;9100;48.700;9.316;2023-06-26T03:46:09;97705.6;;;19.53;100
17950;BME280;9100;48.700;9.316;2023-06-26T03:46:35;97715.5;;;19.56;100
17950;BME280;9100;48.700;9.316;2023-06-26T03:47:35;97706.7;;;19.57;100
17950;BME280;9100;48.700;9.316;2023-06-26T03:48:35;97703.9;;;19.59;100
17950;BME280;9100;48.700;9.316;2023-06-26T03:49:35;97712.2;;;19.61;100
17950;BME280;9100;48.700;9.316;2023-06-26T03:50:35;97717.4;;;19.61;100
17950;BME280;9100;48.700;9.316;2023-06-26T03:51:09;97711.2;;;19.62;100
17950;BME280;9100;48.700;9.316;2023-06-26T03:51:35;97717.4;;;19.61;100
17950;BME280;9100;48.700;9.316;2023-06-26T03:52:35;97713.8;;;19.62;100
17950;BME280;9100;48.700;9.316;2023-06-26T03:53:35;97720.3;;;19.64;100
17950;BME280;9100;48.700;9.316;2023-06-26T03:54:35;97716.09999999999;;;19.63;100
17950;BME280;9100;48.700;9.316;2023-06-26T03:55:35;97717.1;;;19.62;100
17950;BME280;9100;48.700;9.316;2023-06-26T03:56:09;97724.1;;;19.62;100
17950;BME280;9100;48.700;9.316;2023-06-26T03:56:35;97726.2;;;19.6;100
17950;BME280;9100;48.700;9.316;2023-06-26T03:57:35;97721.8;;;19.6;100
17950;BME280;9100;48.700;9.316;2023-06-26T03:58:35;97725.59999999999;;;19.58;100
17950;BME280;9100;48.700;9.316;2023-06-26T03:59:35;97726.70000000001;;;19.57;100
17950;BME280;9100;48.700;9.316;2023-06-26T04:00:35;97726.59999999999;;;19.52;100
17950;BME280;9100;48.700;9.316;2023-06-26T04:01:09;97726;;;19.5;100
17950;BME280;9100;48.700;9.316;2023-06-26T04:01:35;97726;;;19.5;100
17950;BME280;9100;48.700;9.316;2023-06-26T04:02:35;97722.1;;;19.47;100
17950;BME280;9100;48.700;9.316;2023-06-26T04:03:35;97726.9;;;19.44;100
17950;BME280;9100;48.700;9.316;2023-06-26T04:04:35;97723.8;;;19.42;100
17950;BME280;9100;48.700;9.316;2023-06-26T04:05:35;97729.4;;;19.38;100
17950;BME280;9100;48.700;9.316;2023-06-26T04:06:09;97727.8;;;19.37;100
17950;BME280;9100;48.700;9.316;2023-06-26T04:06:35;97726;;;19.38;100
17950;BME280;9100;48.700;9.316;2023-06-26T04:07:36;97730.7;;;19.36;100
17950;BME280;9100;48.700;9.316;2023-06-26T04:08:35;97727.5;;;19.34;100
17950;BME280;9100;48.700;9.316;2023-06-26T04:09:35;97728.8;;;19.31;100
17950;BME280;9100;48.700;9.316;2023-06-26T04:10:35;97722;;;19.3;100
17950;BME280;9100;48.700;9.316;2023-06-26T04:11:09;97655.3;;;18.81;100
17950;BME280;9100;48.700;9.316;2023-06-26T04:11:35;97719.6;;;19.29;100
17950;BME280;9100;48.700;9.316;2023-06-26T04:12:35;97723.8;;;19.3;100
17950;BME280;9100;48.700;9.316;2023-06-26T04:13:35;97720.4;;;19.29;100
17950;BME280;9100;48.700;9.316;2023-06-26T04:14:35;97727.4;;;19.29;100
17950;BME280;9100;48.700;9.316;2023-06-26T04:15:35;97727.70000000001;;;19.27;100
17950;BME280;9100;48.700;9.316;2023-06-26T04:16:09;97728.5;;;19.28;100
17950;BME280;9100;48.700;9.316;2023-06-26T04:16:35;97727.70000000001;;;19.27;100
17950;BME280;9100;48.700;9.316;2023-06-26T04:17:35;97733.6;;;19.28;100
17950;BME280;9100;48.700;9.316;2023-06-26T04:18:35;97723.5;;;19.26;100
17950;BME280;9100;48.700;9.316;2023-06-26T04:19:35;97724.5;;;19.25;100
17950;BME280;9100;48.700;9.316;2023-06-26T04:20:37;97721.90000000001;;;19.25;100
17950;BME280;9100;48.700;9.316;2023-06-26T04:21:10;97733.3;;;19.24;100
17950;BME280;9100;48.700;9.316;2023-06-26T04:21:35;97728.09999999999;;;19.24;100
17950;BME280;9100;48.700;9.316;2023-06-26T04:22:36;97724.7;;;19.24;100
17950;BME280;9100;48.700;9.316;2023-06-26T04:23:35;97724.7;;;19.24;100
17950;BME280;9100;48.700;9.316;2023-06-26T04:24:35;97729.7;;;19.25;100
17950;BME280;9100;48.700;9.316;2023-06-26T04:25:35;97725.8;;;19.23;100
17950;BME280;9100;48.700;9.316;2023-06-26T04:26:09;97725;;;19.22;100
17950;BME280;9100;48.700;9.316;2023-06-26T04:26:35;97731.7;;;19.23;100
17950;BME280;9100;48.700;9.316;2023-06-26T04:27:35;97728.4;;;19.23;100